Terminal Aerodrome Forecast
Issued by NWS St Louis, MO

Home | Current Version | Previous Version | Text Only | Print | Product List | Glossary On
Versions: 1 2 3 4 5 6 7 8 9 10 11 12 13 14 15 16 17 18 19 20 21 22 23 24 25 26 27
000
FTUS43 KLSX 231100
TAFSTL
TAF
KSTL 231129Z 2312/2418 23010KT P6SM BKN200
     FM231800 20008KT P6SM BKN100
     FM240300 33006KT P6SM BKN030 PROB30 2404/2408 5SM -SHRA
     FM240800 33006KT 5SM -RA BKN015
     FM241400 33010KT 5SM -SN BKN015=

USA.gov is the U.S. government's official web portal to all federal, state and local government web resources and services.